Time;durP1;ratioP1;P1;durP2;ratioP2;P2;SDS_P1;SDS_P2;PMS_P1;PMS_P2;Temp;Humidity;BMP_temperature;BMP_pressure;BME280_temperature;BME280_humidity;BME280_pressure;Samples;Min_cycle;Max_cycle;Signal;HPM_P1;HPM_P2
2022/05/21 00:01:05;;;;;;;;;;;19.00;99.90;;;;;;5053133;28;19938;-73
2022/05/21 00:03:31;;;;;;;;;;;19.00;99.90;;;;;;5057170;28;19943;-71
2022/05/21 00:05:57;;;;;;;;;;;18.90;99.90;;;;;;5038439;28;19939;-73
2022/05/21 00:08:23;;;;;;;;;;;18.80;99.90;;;;;;5053565;28;20346;-74
2022/05/21 00:10:49;;;;;;;;;;;18.70;99.90;;;;;;5050741;28;19921;-72
2022/05/21 00:13:14;;;;;;;;;;;18.70;99.90;;;;;;5054710;28;19913;-74
2022/05/21 00:15:40;;;;;;;;;;;18.60;99.90;;;;;;5052429;28;19913;-73
2022/05/21 00:18:06;;;;;;;;;;;18.70;99.90;;;;;;5033576;28;20436;-74
2022/05/21 00:20:50;;;;;;;;;;;18.70;99.90;;;;;;5034351;28;19917;-72
2022/05/21 00:23:15;;;;;;;;;;;18.70;99.90;;;;;;5037780;28;20385;-72
2022/05/21 00:25:41;;;;;;;;;;;18.80;99.90;;;;;;5035658;28;19913;-73
2022/05/21 00:28:07;;;;;;;;;;;18.70;99.90;;;;;;5034781;28;19951;-73
2022/05/21 00:30:33;;;;;;;;;;;18.50;99.90;;;;;;5037822;28;19913;-70
2022/05/21 00:32:59;;;;;;;;;;;18.40;99.90;;;;;;5059591;28;19970;-73
2022/05/21 00:35:25;;;;;;;;;;;18.30;99.90;;;;;;5054231;28;20016;-72
2022/05/21 00:37:51;;;;;;;;;;;18.30;99.90;;;;;;5036643;28;19959;-74
2022/05/21 00:40:16;;;;;;;;;;;18.40;99.90;;;;;;5055225;28;19934;-74
2022/05/21 00:42:43;;;;;;;;;;;18.40;99.90;;;;;;5054964;28;19921;-73
2022/05/21 00:45:09;;;;;;;;;;;18.40;99.90;;;;;;5054401;28;19995;-74
2022/05/21 00:47:36;;;;;;;;;;;18.40;99.90;;;;;;5054481;28;19913;-74
2022/05/21 00:50:02;;;;;;;;;;;18.60;99.90;;;;;;5052964;28;20035;-74
2022/05/21 00:52:28;;;;;;;;;;;18.60;99.90;;;;;;5052024;28;19913;-73
2022/05/21 00:54:58;;;;;;;;;;;18.60;99.90;;;;;;5039090;28;19923;-74
2022/05/21 00:57:26;;;;;;;;;;;18.50;99.90;;;;;;5053663;28;20272;-73
2022/05/21 00:59:54;;;;;;;;;;;18.40;99.90;;;;;;5053488;28;19921;-73
2022/05/21 01:02:19;;;;;;;;;;;18.50;99.90;;;;;;5054643;28;19920;-74
2022/05/21 01:04:46;;;;;;;;;;;18.40;99.90;;;;;;5055349;28;20319;-73
2022/05/21 01:07:14;;;;;;;;;;;18.40;99.90;;;;;;5056411;28;19923;-74
2022/05/21 01:09:40;;;;;;;;;;;18.40;99.90;;;;;;5053000;28;20310;-73
2022/05/21 01:12:07;;;;;;;;;;;18.50;99.90;;;;;;5052621;28;19931;-71
2022/05/21 01:14:32;;;;;;;;;;;18.50;99.90;;;;;;5052669;28;19916;-71
2022/05/21 01:16:59;;;;;;;;;;;18.40;99.90;;;;;;5052594;28;19966;-73
2022/05/21 01:19:25;;;;;;;;;;;18.50;99.90;;;;;;5035602;28;19920;-75
2022/05/21 01:21:51;;;;;;;;;;;18.70;99.90;;;;;;5055764;28;19919;-72
2022/05/21 01:24:16;;;;;;;;;;;18.70;99.90;;;;;;5044807;28;19917;-73
2022/05/21 01:26:42;;;;;;;;;;;18.70;99.90;;;;;;5064027;28;19976;-73
2022/05/21 01:29:11;;;;;;;;;;;18.80;99.90;;;;;;5058539;28;19917;-73
2022/05/21 01:31:37;;;;;;;;;;;18.80;99.90;;;;;;5060178;28;19913;-73
2022/05/21 01:34:03;;;;;;;;;;;19.00;99.90;;;;;;5067520;28;19923;-73
2022/05/21 01:36:29;;;;;;;;;;;19.10;99.90;;;;;;5061981;28;19968;-72
2022/05/21 01:38:54;;;;;;;;;;;19.20;99.90;;;;;;5057640;28;20410;-74
2022/05/21 01:41:20;;;;;;;;;;;19.20;99.90;;;;;;5061624;28;19928;-73
2022/05/21 01:44:52;;;;;;;;;;;19.20;99.90;;;;;;5039837;28;20359;-73
2022/05/21 01:46:40;;;;;;;;;;;19.10;99.90;;;;;;5045701;28;19917;-71
2022/05/21 01:49:06;;;;;;;;;;;19.10;99.90;;;;;;5065706;28;19963;-73
2022/05/21 01:51:31;;;;;;;;;;;19.10;99.90;;;;;;5061247;28;19921;-73
2022/05/21 01:53:57;;;;;;;;;;;19.10;99.90;;;;;;5050822;28;20016;-74
2022/05/21 01:56:22;;;;;;;;;;;19.20;99.90;;;;;;5052469;28;19920;-73
2022/05/21 01:58:48;;;;;;;;;;;19.30;99.90;;;;;;5057425;28;20043;-73
2022/05/21 02:01:14;;;;;;;;;;;19.40;99.90;;;;;;5056250;28;19956;-73
2022/05/21 02:03:39;;;;;;;;;;;19.40;99.90;;;;;;5039227;28;19917;-74
2022/05/21 02:06:05;;;;;;;;;;;19.30;99.90;;;;;;5055249;28;19957;-74
2022/05/21 02:08:31;;;;;;;;;;;19.30;99.90;;;;;;5053957;28;19925;-73
2022/05/21 02:10:56;;;;;;;;;;;19.20;99.90;;;;;;5040636;28;19916;-73
2022/05/21 02:13:27;;;;;;;;;;;19.10;99.90;;;;;;5056971;28;19916;-73
2022/05/21 02:15:53;;;;;;;;;;;19.00;99.90;;;;;;5056694;28;19952;-72
2022/05/21 02:18:18;;;;;;;;;;;18.90;99.90;;;;;;5054268;28;21149;-74
2022/05/21 02:20:46;;;;;;;;;;;18.90;99.90;;;;;;5053542;28;20058;-73
2022/05/21 02:23:11;;;;;;;;;;;18.90;99.90;;;;;;5057982;28;19929;-73
2022/05/21 02:25:37;;;;;;;;;;;19.00;99.90;;;;;;5056542;28;20274;-71
2022/05/21 02:28:03;;;;;;;;;;;18.90;99.90;;;;;;5059045;28;19967;-73
2022/05/21 02:30:28;;;;;;;;;;;18.90;99.90;;;;;;5060406;28;19920;-73
2022/05/21 02:32:54;;;;;;;;;;;18.80;99.90;;;;;;5061303;28;20298;-73
2022/05/21 02:35:20;;;;;;;;;;;18.70;99.90;;;;;;5055391;28;19921;-74
2022/05/21 02:40:30;;;;;;;;;;;18.60;99.90;;;;;;5056837;28;19920;-75
2022/05/21 02:42:56;;;;;;;;;;;18.40;99.90;;;;;;5062128;28;19909;-74
2022/05/21 02:45:23;;;;;;;;;;;18.40;99.90;;;;;;5059938;28;19913;-73
2022/05/21 02:47:48;;;;;;;;;;;18.60;99.90;;;;;;5064756;28;19932;-74
2022/05/21 02:50:15;;;;;;;;;;;18.60;99.90;;;;;;5066629;28;19912;-74
2022/05/21 02:52:41;;;;;;;;;;;18.70;99.90;;;;;;5068823;28;19913;-74
2022/05/21 02:55:07;;;;;;;;;;;18.80;99.90;;;;;;5057144;28;19935;-74
2022/05/21 02:57:33;;;;;;;;;;;18.80;99.90;;;;;;5052964;28;20007;-73
2022/05/21 03:00:00;;;;;;;;;;;18.80;99.90;;;;;;5057606;28;19980;-74
2022/05/21 03:02:25;;;;;;;;;;;18.90;99.90;;;;;;5039244;28;19913;-75
2022/05/21 03:04:51;;;;;;;;;;;18.90;99.90;;;;;;5055048;28;19967;-74
2022/05/21 03:07:16;;;;;;;;;;;18.90;99.90;;;;;;5053454;28;19940;-74
2022/05/21 03:10:27;;;;;;;;;;;18.90;99.90;;;;;;5048245;28;20412;-75
2022/05/21 03:12:28;;;;;;;;;;;18.90;99.90;;;;;;5041949;28;19913;-74
2022/05/21 03:14:53;;;;;;;;;;;18.80;99.90;;;;;;5053480;28;19913;-74
2022/05/21 03:17:19;;;;;;;;;;;18.70;99.90;;;;;;5032452;28;19913;-75
2022/05/21 03:19:45;;;;;;;;;;;18.60;99.90;;;;;;5052970;28;19941;-74
2022/05/21 03:22:10;;;;;;;;;;;18.60;99.90;;;;;;5057616;28;19943;-74
2022/05/21 03:24:36;;;;;;;;;;;18.60;99.90;;;;;;5051338;28;19924;-74
2022/05/21 03:27:01;;;;;;;;;;;18.60;99.90;;;;;;5049450;28;19917;-73
2022/05/21 03:29:27;;;;;;;;;;;18.70;99.90;;;;;;5052139;28;19915;-73
2022/05/21 03:31:53;;;;;;;;;;;18.60;99.90;;;;;;5056164;28;20561;-73
2022/05/21 03:34:19;;;;;;;;;;;18.70;99.90;;;;;;5060947;28;19923;-73
2022/05/21 03:36:44;;;;;;;;;;;18.70;99.90;;;;;;5034700;28;19917;-74
2022/05/21 03:39:10;;;;;;;;;;;18.70;99.90;;;;;;5039728;28;19920;-73
2022/05/21 03:41:38;;;;;;;;;;;18.70;99.90;;;;;;5063489;28;19948;-72
2022/05/21 03:44:04;;;;;;;;;;;18.70;99.90;;;;;;5057197;28;19928;-74
2022/05/21 03:46:30;;;;;;;;;;;18.70;99.90;;;;;;5058716;28;20306;-74
2022/05/21 03:48:55;;;;;;;;;;;18.60;99.90;;;;;;5065222;28;20008;-76
2022/05/21 03:51:21;;;;;;;;;;;18.70;99.90;;;;;;5055108;28;20286;-76
2022/05/21 03:53:46;;;;;;;;;;;18.80;99.90;;;;;;5038944;28;19989;-77
2022/05/21 03:56:12;;;;;;;;;;;18.80;99.90;;;;;;5055896;28;19966;-74
2022/05/21 03:58:38;;;;;;;;;;;18.90;99.90;;;;;;5037466;28;19967;-74
2022/05/21 04:01:04;;;;;;;;;;;18.90;99.90;;;;;;5035477;28;20436;-74
2022/05/21 04:03:30;;;;;;;;;;;19.00;99.90;;;;;;5055368;28;19999;-75
2022/05/21 04:05:57;;;;;;;;;;;19.00;99.90;;;;;;5040247;28;20709;-75
2022/05/21 04:08:23;;;;;;;;;;;19.10;99.90;;;;;;5055162;28;19936;-74
2022/05/21 04:10:49;;;;;;;;;;;19.10;99.90;;;;;;5041146;28;19913;-74
2022/05/21 04:13:15;;;;;;;;;;;19.20;99.90;;;;;;5064330;28;19920;-74
2022/05/21 04:15:40;;;;;;;;;;;19.10;99.90;;;;;;5063594;28;19912;-73
2022/05/21 04:18:06;;;;;;;;;;;19.00;99.90;;;;;;5069470;28;19972;-73
2022/05/21 04:20:32;;;;;;;;;;;19.00;99.90;;;;;;5068504;28;19936;-74
2022/05/21 04:22:57;;;;;;;;;;;19.10;99.90;;;;;;5066390;28;19923;-73
2022/05/21 04:25:23;;;;;;;;;;;19.20;99.90;;;;;;5067420;28;19913;-74
2022/05/21 04:27:48;;;;;;;;;;;19.10;99.90;;;;;;5061103;28;19920;-74
2022/05/21 04:30:19;;;;;;;;;;;19.10;99.90;;;;;;5062585;28;19917;-73
2022/05/21 04:32:45;;;;;;;;;;;19.20;99.90;;;;;;5066702;28;19913;-73
2022/05/21 04:35:10;;;;;;;;;;;19.20;99.90;;;;;;5067683;28;19970;-73
2022/05/21 04:37:37;;;;;;;;;;;19.20;99.90;;;;;;5071976;28;19980;-74
2022/05/21 04:40:04;;;;;;;;;;;19.20;99.90;;;;;;5053122;28;19913;-74
2022/05/21 04:42:29;;;;;;;;;;;19.20;99.90;;;;;;5053297;28;19916;-74
2022/05/21 04:44:55;;;;;;;;;;;19.40;99.90;;;;;;5059761;28;19934;-74
2022/05/21 04:47:21;;;;;;;;;;;19.50;99.90;;;;;;5053741;28;19921;-73
2022/05/21 04:49:46;;;;;;;;;;;19.60;99.90;;;;;;5050964;28;19920;-74
2022/05/21 04:52:12;;;;;;;;;;;19.70;99.90;;;;;;5044853;28;20311;-73
2022/05/21 04:54:38;;;;;;;;;;;19.80;99.90;;;;;;5050190;28;19917;-73
2022/05/21 04:57:04;;;;;;;;;;;19.80;99.90;;;;;;5050507;28;19913;-74
2022/05/21 04:59:30;;;;;;;;;;;19.90;99.90;;;;;;5048742;28;19917;-73
2022/05/21 05:01:56;;;;;;;;;;;20.00;99.90;;;;;;5046916;28;19920;-74
2022/05/21 05:04:22;;;;;;;;;;;20.00;99.90;;;;;;5054789;28;19964;-74
2022/05/21 05:06:47;;;;;;;;;;;20.00;99.90;;;;;;5054864;28;19944;-73
2022/05/21 05:09:15;;;;;;;;;;;20.00;99.90;;;;;;5038921;28;19925;-74
2022/05/21 05:11:42;;;;;;;;;;;20.00;99.90;;;;;;5056632;28;20318;-73
2022/05/21 05:14:07;;;;;;;;;;;20.00;99.90;;;;;;5052491;28;19913;-73
2022/05/21 05:16:33;;;;;;;;;;;20.10;99.90;;;;;;5049122;28;19951;-73
2022/05/21 05:18:59;;;;;;;;;;;20.20;99.90;;;;;;5048049;28;19913;-73
2022/05/21 05:21:24;;;;;;;;;;;20.30;99.90;;;;;;5047989;28;19952;-74
2022/05/21 05:23:50;;;;;;;;;;;20.40;99.90;;;;;;5051231;28;19970;-73
2022/05/21 05:26:16;;;;;;;;;;;20.50;99.90;;;;;;5050347;28;20343;-73
2022/05/21 05:28:41;;;;;;;;;;;20.60;99.90;;;;;;5053361;28;19939;-73
2022/05/21 05:31:07;;;;;;;;;;;20.70;99.90;;;;;;5051615;28;19917;-73
2022/05/21 05:33:33;;;;;;;;;;;20.90;99.90;;;;;;5059667;28;19913;-74
2022/05/21 05:35:59;;;;;;;;;;;21.00;99.90;;;;;;5050894;28;19913;-74
2022/05/21 05:38:24;;;;;;;;;;;21.10;99.90;;;;;;5063758;28;20035;-74
2022/05/21 05:40:51;;;;;;;;;;;21.20;99.90;;;;;;5050447;28;19913;-73
2022/05/21 05:43:17;;;;;;;;;;;21.20;99.90;;;;;;5049864;28;20336;-73
2022/05/21 05:45:43;;;;;;;;;;;21.20;99.90;;;;;;5051765;28;20012;-73
2022/05/21 05:48:09;;;;;;;;;;;21.30;99.90;;;;;;5065837;28;19923;-73
2022/05/21 05:50:35;;;;;;;;;;;21.40;99.90;;;;;;5063051;28;19914;-73
2022/05/21 05:53:01;;;;;;;;;;;21.50;99.90;;;;;;5052480;28;19913;-72
2022/05/21 05:55:27;;;;;;;;;;;21.60;99.90;;;;;;5056038;28;19952;-74
2022/05/21 05:57:52;;;;;;;;;;;21.70;99.90;;;;;;5037527;28;19925;-73
2022/05/21 06:00:19;;;;;;;;;;;21.90;99.90;;;;;;5033100;28;19913;-73
2022/05/21 06:03:01;;;;;;;;;;;22.10;99.90;;;;;;5032401;28;19913;-74
2022/05/21 06:05:28;;;;;;;;;;;22.20;99.90;;;;;;5013221;28;19971;-72
2022/05/21 06:07:55;;;;;;;;;;;22.10;99.90;;;;;;5050874;28;19966;-74
2022/05/21 06:10:23;;;;;;;;;;;22.20;99.90;;;;;;5052012;28;19921;-74
2022/05/21 06:12:49;;;;;;;;;;;22.30;99.90;;;;;;5051561;28;20228;-74
2022/05/21 06:15:15;;;;;;;;;;;22.60;99.90;;;;;;5054983;28;19919;-73
2022/05/21 06:17:40;;;;;;;;;;;23.00;99.90;;;;;;5050366;28;19913;-74
2022/05/21 06:20:08;;;;;;;;;;;23.30;99.90;;;;;;5051796;28;20382;-74
2022/05/21 06:22:33;;;;;;;;;;;23.30;99.90;;;;;;5033152;28;19927;-73
2022/05/21 06:24:59;;;;;;;;;;;23.20;99.90;;;;;;5051956;28;20349;-73
2022/05/21 06:27:25;;;;;;;;;;;23.20;99.90;;;;;;5077104;28;19977;-74
2022/05/21 06:29:51;;;;;;;;;;;23.30;99.90;;;;;;5061735;28;19916;-73
2022/05/21 06:32:16;;;;;;;;;;;23.30;99.90;;;;;;5053224;28;19916;-73
2022/05/21 06:34:42;;;;;;;;;;;23.30;99.90;;;;;;5054411;28;20097;-74
2022/05/21 06:37:10;;;;;;;;;;;23.50;99.90;;;;;;5064267;28;20370;-72
2022/05/21 06:39:36;;;;;;;;;;;23.60;99.90;;;;;;5065771;28;19913;-72
2022/05/21 06:42:02;;;;;;;;;;;23.70;99.90;;;;;;5062868;28;19943;-72
2022/05/21 06:44:28;;;;;;;;;;;23.90;99.90;;;;;;5075118;28;20005;-74
2022/05/21 06:46:55;;;;;;;;;;;24.10;99.90;;;;;;5065280;28;19928;-73
2022/05/21 06:49:21;;;;;;;;;;;24.20;99.90;;;;;;5050286;28;20376;-74
2022/05/21 06:51:47;;;;;;;;;;;24.20;99.90;;;;;;5054843;28;19916;-74
2022/05/21 06:54:12;;;;;;;;;;;24.30;99.90;;;;;;5060689;28;19982;-73
2022/05/21 06:56:39;;;;;;;;;;;24.40;99.90;;;;;;5049402;28;20371;-73
2022/05/21 06:59:04;;;;;;;;;;;24.40;99.90;;;;;;5051743;28;19932;-63
2022/05/21 07:01:30;;;;;;;;;;;24.40;99.90;;;;;;5029780;28;19913;-63
2022/05/21 07:03:56;;;;;;;;;;;24.40;99.90;;;;;;5068068;28;20004;-69
2022/05/21 07:09:06;;;;;;;;;;;24.40;99.90;;;;;;5051901;28;20349;-69
2022/05/21 07:11:32;;;;;;;;;;;24.40;99.90;;;;;;5058234;28;19917;-69
2022/05/21 07:13:58;;;;;;;;;;;24.20;99.90;;;;;;5047301;28;20355;-68
2022/05/21 07:16:24;;;;;;;;;;;24.20;99.90;;;;;;5054740;28;20321;-69
2022/05/21 07:18:49;;;;;;;;;;;24.20;99.90;;;;;;5063026;28;19913;-69
2022/05/21 07:21:16;;;;;;;;;;;24.20;99.90;;;;;;5056694;28;19919;-70
2022/05/21 07:23:42;;;;;;;;;;;24.00;99.90;;;;;;5050436;28;20378;-70
2022/05/21 07:26:07;;;;;;;;;;;23.90;99.90;;;;;;5058295;28;19912;-68
2022/05/21 07:28:33;;;;;;;;;;;23.90;99.90;;;;;;5042630;28;19913;-70
2022/05/21 07:30:58;;;;;;;;;;;24.00;99.90;;;;;;5058327;28;20382;-70
2022/05/21 07:33:24;;;;;;;;;;;24.00;99.90;;;;;;5048316;28;20058;-70
2022/05/21 07:35:50;;;;;;;;;;;24.10;99.90;;;;;;5053084;28;19908;-71
2022/05/21 07:38:16;;;;;;;;;;;24.10;99.90;;;;;;5049584;28;19935;-70
2022/05/21 07:40:44;;;;;;;;;;;24.00;99.90;;;;;;5052844;28;19913;-70
2022/05/21 07:43:11;;;;;;;;;;;24.00;99.90;;;;;;5061854;28;19955;-71
2022/05/21 07:45:39;;;;;;;;;;;23.90;99.90;;;;;;5069638;28;19908;-69
2022/05/21 07:48:10;;;;;;;;;;;23.90;99.90;;;;;;5056949;28;19994;-70
2022/05/21 07:50:36;;;;;;;;;;;23.90;99.90;;;;;;5060561;28;19913;-70
2022/05/21 07:53:02;;;;;;;;;;;23.80;99.90;;;;;;5050331;28;19936;-69
2022/05/21 07:55:28;;;;;;;;;;;23.60;99.90;;;;;;5051979;28;19995;-69
2022/05/21 07:57:53;;;;;;;;;;;23.60;99.90;;;;;;5055738;28;20405;-70
2022/05/21 08:00:19;;;;;;;;;;;23.80;99.90;;;;;;5057344;28;20008;-69
2022/05/21 08:02:45;;;;;;;;;;;23.70;99.90;;;;;;5041684;28;19919;-70
2022/05/21 08:05:11;;;;;;;;;;;23.80;99.90;;;;;;5059589;28;19917;-72
2022/05/21 08:07:37;;;;;;;;;;;23.80;99.90;;;;;;5065847;28;19954;-70
2022/05/21 08:10:03;;;;;;;;;;;23.70;99.90;;;;;;5051112;28;19921;-70
2022/05/21 08:12:29;;;;;;;;;;;23.70;99.90;;;;;;5046061;28;19991;-69
2022/05/21 08:14:54;;;;;;;;;;;23.70;99.90;;;;;;5048280;28;20461;-70
2022/05/21 08:17:20;;;;;;;;;;;23.70;99.90;;;;;;5051013;28;19932;-70
2022/05/21 08:19:46;;;;;;;;;;;23.60;99.90;;;;;;5048817;28;19925;-70
2022/05/21 08:27:40;;;;;;;;;;;24.00;99.90;;;;;;5050785;28;19920;-70
2022/05/21 08:30:06;;;;;;;;;;;24.00;99.90;;;;;;5051115;28;19913;-70
2022/05/21 08:32:31;;;;;;;;;;;24.20;99.90;;;;;;5051503;28;19909;-69
2022/05/21 08:34:59;;;;;;;;;;;24.20;99.90;;;;;;5050753;28;19913;-69
2022/05/21 08:37:24;;;;;;;;;;;24.10;99.90;;;;;;5050266;28;22004;-70
2022/05/21 08:39:50;;;;;;;;;;;24.10;99.90;;;;;;5051187;28;19909;-70
2022/05/21 08:42:20;;;;;;;;;;;24.10;99.90;;;;;;5051535;28;20492;-69
2022/05/21 08:44:47;;;;;;;;;;;24.20;99.90;;;;;;5050564;28;20013;-70
2022/05/21 08:47:24;;;;;;;;;;;24.00;99.90;;;;;;5049809;28;20305;-70
2022/05/21 08:49:58;;;;;;;;;;;23.90;99.90;;;;;;5045339;28;19919;-69
2022/05/21 08:52:42;;;;;;;;;;;23.80;99.90;;;;;;5049281;28;20370;-69
2022/05/21 08:55:09;;;;;;;;;;;23.70;99.90;;;;;;5047563;28;19919;-72
2022/05/21 08:58:01;;;;;;;;;;;23.70;99.90;;;;;;5033220;28;19995;-71
2022/05/21 09:00:31;;;;;;;;;;;23.80;99.90;;;;;;5047284;28;19920;-70
2022/05/21 09:02:57;;;;;;;;;;;23.80;99.90;;;;;;5047346;28;19923;-69
2022/05/21 09:05:23;;;;;;;;;;;23.80;99.90;;;;;;5050333;28;19909;-71
2022/05/21 09:08:05;;;;;;;;;;;23.80;99.90;;;;;;5033018;28;19935;-71
2022/05/21 09:10:39;;;;;;;;;;;23.90;99.90;;;;;;5049092;28;19919;-69
2022/05/21 09:13:20;;;;;;;;;;;24.00;99.90;;;;;;5049590;28;20413;-70
2022/05/21 09:18:32;;;;;;;;;;;24.20;99.90;;;;;;5048225;28;19919;-71
2022/05/21 09:21:16;;;;;;;;;;;24.10;99.90;;;;;;5050441;28;20313;-71
2022/05/21 09:23:49;;;;;;;;;;;24.10;99.90;;;;;;5050042;28;20326;-70
2022/05/21 09:26:15;;;;;;;;;;;23.90;99.90;;;;;;5050555;28;19912;-70
2022/05/21 09:28:41;;;;;;;;;;;23.90;99.90;;;;;;5051046;28;19999;-69
2022/05/21 09:31:08;;;;;;;;;;;24.00;99.90;;;;;;5049232;28;19909;-69
2022/05/21 09:33:35;;;;;;;;;;;24.00;99.90;;;;;;5048786;28;20008;-73
2022/05/21 09:36:00;;;;;;;;;;;24.00;99.90;;;;;;5031605;28;19912;-70
2022/05/21 09:38:27;;;;;;;;;;;24.00;99.90;;;;;;5049785;28;19936;-69
2022/05/21 09:41:28;;;;;;;;;;;24.00;99.90;;;;;;5050442;28;19994;-72
2022/05/21 09:47:25;;;;;;;;;;;24.00;99.90;;;;;;5050284;28;20024;-70
2022/05/21 09:50:02;;;;;;;;;;;24.20;99.90;;;;;;5003448;28;19928;-71
2022/05/21 09:52:29;;;;;;;;;;;24.20;99.90;;;;;;5047536;28;19909;-72
2022/05/21 09:54:54;;;;;;;;;;;24.20;99.90;;;;;;5057063;28;19923;-70
2022/05/21 09:57:26;;;;;;;;;;;24.20;99.90;;;;;;5057348;28;19908;-70
2022/05/21 10:00:04;;;;;;;;;;;23.90;99.90;;;;;;5051843;28;19924;-69
2022/05/21 10:02:41;;;;;;;;;;;24.00;99.90;;;;;;5061447;28;19975;-68
2022/05/21 10:05:08;;;;;;;;;;;24.00;99.90;;;;;;5049547;28;19931;-70
2022/05/21 10:13:17;;;;;;;;;;;23.60;99.90;;;;;;5056479;28;19920;-70
2022/05/21 10:15:47;;;;;;;;;;;23.50;99.90;;;;;;5048781;28;19921;-71
2022/05/21 10:18:12;;;;;;;;;;;23.40;99.90;;;;;;5035700;28;20289;-70
2022/05/21 10:20:43;;;;;;;;;;;23.30;99.90;;;;;;5051021;28;19913;-70
2022/05/21 10:23:28;;;;;;;;;;;23.30;99.90;;;;;;5052435;28;19913;-70
2022/05/21 10:26:06;;;;;;;;;;;23.30;99.90;;;;;;5053921;28;19970;-71
2022/05/21 10:28:33;;;;;;;;;;;23.20;99.90;;;;;;5054487;28;19913;-71
2022/05/21 10:30:59;;;;;;;;;;;23.20;99.90;;;;;;5053216;28;19962;-71
2022/05/21 10:33:24;;;;;;;;;;;23.20;99.90;;;;;;5054237;28;19924;-70
2022/05/21 10:35:59;;;;;;;;;;;23.10;99.90;;;;;;5049943;28;19919;-70
2022/05/21 10:38:24;;;;;;;;;;;23.10;99.90;;;;;;5054747;28;19921;-68
2022/05/21 10:40:57;;;;;;;;;;;23.10;99.90;;;;;;5054503;28;20424;-71
2022/05/21 10:43:34;;;;;;;;;;;23.20;99.90;;;;;;5036916;28;19921;-70
2022/05/21 10:46:22;;;;;;;;;;;23.30;99.90;;;;;;5062779;28;19915;-70
2022/05/21 10:48:55;;;;;;;;;;;23.20;99.90;;;;;;5035398;28;20497;-69
2022/05/21 10:51:26;;;;;;;;;;;23.20;99.90;;;;;;5053246;28;19920;-70
2022/05/21 10:54:05;;;;;;;;;;;23.30;99.90;;;;;;5047352;28;19913;-70
2022/05/21 10:56:50;;;;;;;;;;;23.50;99.90;;;;;;5058349;28;19924;-69
2022/05/21 10:59:34;;;;;;;;;;;23.50;99.90;;;;;;5061650;28;19939;-73
2022/05/21 11:02:05;;;;;;;;;;;23.50;99.90;;;;;;5059423;28;19913;-70
2022/05/21 11:04:31;;;;;;;;;;;23.30;99.90;;;;;;5062890;28;20441;-72
2022/05/21 11:07:12;;;;;;;;;;;23.30;99.90;;;;;;5064310;28;19928;-70
2022/05/21 11:09:37;;;;;;;;;;;23.30;99.90;;;;;;5063040;28;20308;-68
2022/05/21 11:12:05;;;;;;;;;;;23.20;99.90;;;;;;5055399;28;19913;-73
2022/05/21 11:14:33;;;;;;;;;;;23.00;99.90;;;;;;5055218;28;19948;-73
2022/05/21 11:17:02;;;;;;;;;;;23.20;99.90;;;;;;5067067;28;19908;-71
2022/05/21 11:19:43;;;;;;;;;;;23.30;99.90;;;;;;5058396;28;20011;-71
2022/05/21 11:22:13;;;;;;;;;;;23.10;99.90;;;;;;5044614;28;19959;-72
2022/05/21 11:24:51;;;;;;;;;;;23.00;99.90;;;;;;5045608;28;20259;-72
2022/05/21 11:27:18;;;;;;;;;;;22.90;99.90;;;;;;5054948;28;19913;-71
2022/05/21 11:29:53;;;;;;;;;;;22.90;99.90;;;;;;5052086;28;19919;-71
2022/05/21 11:37:59;;;;;;;;;;;22.70;99.90;;;;;;5053880;28;19986;-71
2022/05/21 11:40:43;;;;;;;;;;;22.80;99.90;;;;;;5053505;28;19908;-71
2022/05/21 11:43:08;;;;;;;;;;;22.80;99.90;;;;;;5051177;28;19913;-72
2022/05/21 11:45:34;;;;;;;;;;;22.90;99.90;;;;;;5051620;28;20388;-73
2022/05/21 11:48:18;;;;;;;;;;;23.10;99.90;;;;;;5035323;28;20325;-72
2022/05/21 11:50:44;;;;;;;;;;;23.20;99.90;;;;;;5047076;28;19935;-71
2022/05/21 11:53:30;;;;;;;;;;;23.00;99.90;;;;;;5033978;28;20390;-73
2022/05/21 11:55:55;;;;;;;;;;;23.00;99.90;;;;;;5031316;28;20019;-70
2022/05/21 11:58:24;;;;;;;;;;;23.00;99.90;;;;;;5046168;28;20018;-72
2022/05/21 12:00:50;;;;;;;;;;;23.10;99.90;;;;;;5055492;28;19948;-71
2022/05/21 12:03:17;;;;;;;;;;;23.30;99.90;;;;;;5047467;28;19948;-73
2022/05/21 12:05:47;;;;;;;;;;;23.40;99.90;;;;;;5044487;28;19917;-72
2022/05/21 12:08:17;;;;;;;;;;;23.50;99.90;;;;;;5056048;28;20351;-72
2022/05/21 12:10:58;;;;;;;;;;;23.70;99.90;;;;;;5049947;28;19956;-71
2022/05/21 12:13:35;;;;;;;;;;;23.80;99.90;;;;;;5048837;28;19917;-72
2022/05/21 12:16:01;;;;;;;;;;;23.90;99.90;;;;;;5052166;28;19908;-71
2022/05/21 12:18:34;;;;;;;;;;;23.90;99.90;;;;;;5052372;28;19909;-70
2022/05/21 12:21:00;;;;;;;;;;;23.80;99.90;;;;;;5050073;28;19999;-70
2022/05/21 12:23:26;;;;;;;;;;;23.60;99.90;;;;;;5048643;28;20020;-72
2022/05/21 12:25:53;;;;;;;;;;;23.60;99.90;;;;;;5047084;28;19912;-72
2022/05/21 12:28:19;;;;;;;;;;;23.70;99.90;;;;;;5048894;28;19966;-71
2022/05/21 12:30:57;;;;;;;;;;;23.90;99.90;;;;;;5044131;28;20003;-73
2022/05/21 12:33:27;;;;;;;;;;;24.00;99.90;;;;;;5048847;28;19952;-70
2022/05/21 12:35:59;;;;;;;;;;;24.00;99.90;;;;;;5053612;28;19966;-71
2022/05/21 12:38:35;;;;;;;;;;;24.10;99.90;;;;;;5053733;28;19913;-72
2022/05/21 12:41:10;;;;;;;;;;;24.10;99.90;;;;;;5050118;28;19927;-71
2022/05/21 12:43:46;;;;;;;;;;;24.20;99.90;;;;;;5066700;28;19935;-71
2022/05/21 12:46:28;;;;;;;;;;;24.30;99.90;;;;;;5047893;28;19916;-69
2022/05/21 12:48:56;;;;;;;;;;;24.50;99.90;;;;;;5051653;28;19994;-71
2022/05/21 12:51:28;;;;;;;;;;;24.70;99.90;;;;;;5051632;28;20000;-72
2022/05/21 12:53:55;;;;;;;;;;;24.70;99.90;;;;;;5051855;28;19909;-70
2022/05/21 12:56:24;;;;;;;;;;;24.70;99.90;;;;;;5052464;28;19909;-71
2022/05/21 12:59:08;;;;;;;;;;;24.80;99.90;;;;;;5048740;28;19979;-72
2022/05/21 13:01:35;;;;;;;;;;;24.80;99.90;;;;;;5013892;28;19963;-71
2022/05/21 13:04:01;;;;;;;;;;;24.90;99.90;;;;;;5032025;28;20357;-71
2022/05/21 13:06:28;;;;;;;;;;;24.70;99.90;;;;;;5042744;28;20371;-70
2022/05/21 13:08:54;;;;;;;;;;;24.60;99.90;;;;;;5050709;28;19917;-72
2022/05/21 13:11:21;;;;;;;;;;;24.40;99.90;;;;;;5051166;28;20380;-71
2022/05/21 13:14:10;;;;;;;;;;;24.50;99.90;;;;;;5051872;28;19987;-70
2022/05/21 13:16:45;;;;;;;;;;;24.60;99.90;;;;;;5031229;28;20489;-73
2022/05/21 13:19:30;;;;;;;;;;;24.80;99.90;;;;;;5059030;28;20294;-71
2022/05/21 13:22:18;;;;;;;;;;;25.00;99.90;;;;;;5053472;28;19909;-74
2022/05/21 13:24:55;;;;;;;;;;;25.00;99.90;;;;;;5062503;28;19923;-71
2022/05/21 13:27:21;;;;;;;;;;;25.00;99.90;;;;;;5042566;28;20374;-72
2022/05/21 13:29:48;;;;;;;;;;;25.10;99.90;;;;;;5049250;28;19913;-71
2022/05/21 13:32:14;;;;;;;;;;;25.30;99.90;;;;;;5048181;28;19909;-71
2022/05/21 13:34:39;;;;;;;;;;;25.30;99.90;;;;;;5040977;28;19912;-71
2022/05/21 13:37:06;;;;;;;;;;;25.50;99.90;;;;;;5049981;28;19969;-70
2022/05/21 13:39:35;;;;;;;;;;;25.80;99.90;;;;;;5029146;28;20007;-72
2022/05/21 13:42:11;;;;;;;;;;;25.90;99.90;;;;;;5043721;28;20216;-71
2022/05/21 13:44:38;;;;;;;;;;;26.20;99.90;;;;;;5051724;28;19928;-70
2022/05/21 13:47:05;;;;;;;;;;;26.40;99.90;;;;;;5058253;28;19909;-70
2022/05/21 13:49:36;;;;;;;;;;;26.50;99.90;;;;;;5051321;28;19916;-73
2022/05/21 13:52:02;;;;;;;;;;;26.60;99.90;;;;;;5060674;28;19909;-70
2022/05/21 13:54:29;;;;;;;;;;;26.50;99.90;;;;;;5064750;28;19987;-69
2022/05/21 13:57:03;;;;;;;;;;;26.50;99.90;;;;;;5055974;28;20283;-70
2022/05/21 13:59:28;;;;;;;;;;;26.70;99.90;;;;;;5056682;28;19928;-71
2022/05/21 14:02:12;;;;;;;;;;;26.70;99.90;;;;;;5049857;28;19928;-72
2022/05/21 14:04:39;;;;;;;;;;;26.80;99.90;;;;;;5057626;28;19917;-70
2022/05/21 14:07:17;;;;;;;;;;;26.60;99.90;;;;;;5064263;28;19951;-69
2022/05/21 14:09:44;;;;;;;;;;;26.50;99.90;;;;;;5057902;28;19962;-71
2022/05/21 14:12:16;;;;;;;;;;;26.50;99.90;;;;;;5055143;28;19999;-70
2022/05/21 14:14:42;;;;;;;;;;;26.50;99.90;;;;;;5050400;28;19920;-70
2022/05/21 14:17:19;;;;;;;;;;;26.40;99.90;;;;;;5050232;28;19921;-70
2022/05/21 14:20:02;;;;;;;;;;;26.50;99.90;;;;;;5056441;28;19909;-70
2022/05/21 14:22:28;;;;;;;;;;;26.20;99.90;;;;;;5057465;28;20367;-70
2022/05/21 14:24:53;;;;;;;;;;;26.00;99.90;;;;;;5056280;28;19963;-70
2022/05/21 14:27:26;;;;;;;;;;;25.90;99.90;;;;;;5056848;28;19913;-70
2022/05/21 14:29:53;;;;;;;;;;;25.80;99.90;;;;;;5060291;28;20007;-71
2022/05/21 14:32:21;;;;;;;;;;;25.80;99.90;;;;;;5045236;28;19909;-71
2022/05/21 14:34:48;;;;;;;;;;;25.80;99.90;;;;;;5057427;28;19923;-69
2022/05/21 14:37:20;;;;;;;;;;;25.70;99.90;;;;;;5069836;28;19959;-71
2022/05/21 14:39:46;;;;;;;;;;;25.70;99.90;;;;;;5055552;28;19942;-72
2022/05/21 14:42:11;;;;;;;;;;;25.50;99.90;;;;;;5062536;28;20042;-72
2022/05/21 14:44:38;;;;;;;;;;;25.50;99.90;;;;;;5068586;28;19919;-70
2022/05/21 14:49:47;;;;;;;;;;;25.50;99.90;;;;;;5066946;28;19927;-70
2022/05/21 14:54:58;;;;;;;;;;;25.80;99.90;;;;;;5051854;28;20333;-71
2022/05/21 14:57:24;;;;;;;;;;;25.70;99.90;;;;;;5052498;28;19920;-70